createdAt,value
2022-10-21T00:00:18.828Z,76.55
2022-10-21T00:02:50.178Z,76.65
2022-10-21T00:05:21.157Z,76.68
2022-10-21T00:07:51.703Z,76.82
2022-10-21T00:10:23.680Z,76.91
2022-10-21T00:12:53.157Z,77.01
2022-10-21T00:15:23.787Z,77.12
2022-10-21T00:17:55.294Z,77.20
2022-10-21T00:20:24.641Z,77.25
2022-10-21T00:22:56.349Z,77.20
2022-10-21T00:25:25.877Z,77.23
2022-10-21T00:27:57.585Z,77.24
2022-10-21T00:30:27.753Z,77.18
2022-10-21T00:33:02.150Z,77.25
2022-10-21T00:35:34.565Z,77.30
2022-10-21T00:38:03.348Z,77.32
2022-10-21T00:40:33.505Z,77.34
2022-10-21T00:43:03.627Z,77.39
2022-10-21T00:45:35.734Z,77.44
2022-10-21T00:48:13.310Z,77.55
2022-10-21T00:50:54.432Z,77.56
2022-10-21T00:53:24.010Z,77.52
2022-10-21T00:55:57.727Z,77.55
2022-10-21T00:58:30.581Z,77.67
2022-10-21T01:01:03.623Z,77.56
2022-10-21T01:03:36.264Z,77.54
2022-10-21T01:06:09.341Z,77.69
2022-10-21T01:08:39.260Z,77.82
2022-10-21T01:11:13.236Z,78.00
2022-10-21T01:14:30.946Z,78.17
2022-10-21T01:17:40.164Z,78.29
2022-10-21T01:20:24.968Z,78.41
2022-10-21T01:23:33.571Z,78.58
2022-10-21T01:26:58.925Z,78.89
2022-10-21T01:29:54.106Z,79.01
2022-10-21T01:32:47.762Z,79.26
2022-10-21T01:35:37.386Z,79.33
2022-10-21T01:38:25.041Z,79.33
2022-10-21T01:41:18.187Z,79.51
2022-10-21T01:43:57.285Z,79.55
2022-10-21T01:46:34.345Z,79.80
2022-10-21T01:49:09.707Z,80.07
2022-10-21T01:51:39.309Z,80.14
2022-10-21T01:54:17.252Z,80.04
2022-10-21T01:56:47.136Z,79.92
2022-10-21T01:59:16.628Z,79.75
2022-10-21T02:01:47.173Z,79.76
2022-10-21T02:04:18.767Z,79.72
2022-10-21T02:06:50.570Z,79.80
2022-10-21T02:09:21.020Z,79.95
2022-10-21T02:11:52.511Z,79.98
2022-10-21T02:14:39.318Z,79.96
2022-10-21T02:17:13.069Z,80.05
2022-10-21T02:19:43.507Z,80.13
2022-10-21T02:22:17.449Z,80.19
2022-10-21T02:25:06.029Z,80.13
2022-10-21T02:27:37.606Z,80.16
2022-10-21T02:30:08.742Z,80.31
2022-10-21T02:32:50.049Z,80.49
2022-10-21T02:35:34.158Z,80.54
2022-10-21T02:38:29.457Z,80.56
2022-10-21T02:41:06.547Z,80.55
2022-10-21T02:43:53.377Z,80.70
2022-10-21T02:46:22.761Z,80.83
2022-10-21T02:48:53.083Z,80.87
2022-10-21T02:51:22.050Z,80.85
2022-10-21T02:53:51.179Z,80.98
2022-10-21T02:56:21.131Z,81.25
2022-10-21T02:58:51.282Z,81.45
2022-10-21T03:01:20.868Z,81.50
2022-10-21T03:03:50.747Z,81.49
2022-10-21T03:06:20.174Z,81.42
2022-10-21T03:08:49.849Z,81.32
2022-10-21T03:11:20.083Z,81.37
2022-10-21T03:13:50.059Z,81.32
2022-10-21T03:16:20.068Z,81.34
2022-10-21T03:18:49.927Z,81.36
2022-10-21T03:21:21.125Z,81.33
2022-10-21T03:23:50.574Z,81.25
2022-10-21T03:26:20.061Z,81.26
2022-10-21T03:28:50.584Z,81.30
2022-10-21T03:31:20.371Z,81.25
2022-10-21T03:33:51.005Z,81.23
2022-10-21T03:36:21.134Z,81.19
2022-10-21T03:38:50.216Z,81.26
2022-10-21T03:41:19.618Z,81.33
2022-10-21T03:43:49.151Z,81.41
2022-10-21T03:46:18.870Z,81.53
2022-10-21T03:48:48.277Z,81.46
2022-10-21T03:51:18.831Z,81.49
2022-10-21T03:53:48.433Z,81.55
2022-10-21T03:56:18.222Z,81.58
2022-10-21T03:58:48.097Z,81.48
2022-10-21T04:01:20.006Z,81.39
2022-10-21T04:03:49.659Z,81.40
2022-10-21T04:06:20.183Z,81.49
2022-10-21T04:08:51.135Z,81.41
2022-10-21T04:11:21.195Z,81.35
2022-10-21T04:13:51.019Z,81.38
2022-10-21T04:16:21.930Z,81.43
2022-10-21T04:18:50.812Z,81.44
2022-10-21T04:21:20.798Z,81.44
2022-10-21T04:23:51.204Z,81.43
2022-10-21T04:26:20.993Z,81.47
2022-10-21T04:28:51.217Z,81.53
2022-10-21T04:31:20.811Z,81.50
2022-10-21T04:33:51.889Z,81.54
2022-10-21T04:36:22.850Z,81.51
2022-10-21T04:38:52.424Z,81.52
2022-10-21T04:41:22.033Z,81.44
2022-10-21T04:43:51.998Z,81.42
2022-10-21T04:46:21.346Z,81.45
2022-10-21T04:48:52.762Z,81.45
2022-10-21T04:51:22.607Z,81.47
2022-10-21T04:53:52.176Z,81.53
2022-10-21T04:56:21.882Z,81.61
2022-10-21T04:58:52.102Z,81.59
2022-10-21T05:01:21.590Z,81.70
2022-10-21T05:03:52.542Z,81.87
2022-10-21T05:06:22.575Z,81.94
2022-10-21T05:08:53.421Z,82.02
2022-10-21T05:11:23.819Z,82.01
2022-10-21T05:13:54.863Z,82.03
2022-10-21T05:16:26.354Z,82.16
2022-10-21T05:18:57.785Z,82.22
2022-10-21T05:21:28.526Z,82.21
2022-10-21T05:23:59.540Z,82.23
2022-10-21T05:26:30.844Z,82.25
2022-10-21T05:29:00.677Z,82.24
2022-10-21T05:31:31.160Z,82.25
2022-10-21T05:34:02.306Z,82.20
2022-10-21T05:36:32.008Z,82.20
2022-10-21T05:39:02.125Z,82.27
2022-10-21T05:41:32.789Z,82.32
2022-10-21T05:44:03.392Z,82.26
2022-10-21T05:46:33.477Z,82.16
2022-10-21T05:49:04.338Z,82.12
2022-10-21T05:51:35.375Z,82.10
2022-10-21T05:54:05.412Z,82.05
2022-10-21T05:56:38.295Z,82.05
2022-10-21T05:59:10.223Z,82.05
2022-10-21T06:01:41.786Z,82.07
2022-10-21T06:04:14.117Z,82.04
2022-10-21T06:06:44.278Z,82.01
2022-10-21T06:09:14.253Z,81.99
2022-10-21T06:11:45.798Z,81.92
2022-10-21T06:14:16.906Z,81.81
2022-10-21T06:16:48.827Z,81.74
2022-10-21T06:19:20.287Z,81.62
2022-10-21T06:21:51.077Z,81.45
2022-10-21T06:24:22.083Z,81.31
2022-10-21T06:26:52.834Z,81.25
2022-10-21T06:29:23.440Z,81.17
2022-10-21T06:31:52.869Z,81.10
2022-10-21T06:34:23.020Z,80.91
2022-10-21T06:36:53.178Z,80.70
2022-10-21T06:39:24.064Z,80.63
2022-10-21T06:41:54.375Z,80.53
2022-10-21T06:44:31.958Z,80.26
2022-10-21T06:47:02.237Z,79.98
2022-10-21T06:49:32.786Z,79.84
2022-10-21T06:52:02.396Z,79.64
2022-10-21T06:54:32.862Z,79.41
2022-10-21T06:57:02.828Z,79.11
2022-10-21T06:59:33.526Z,78.88
2022-10-21T07:02:03.691Z,78.64
2022-10-21T07:04:33.873Z,78.48
2022-10-21T07:07:04.481Z,78.20
2022-10-21T07:09:36.054Z,77.89
2022-10-21T07:12:05.935Z,77.80
2022-10-21T07:14:35.327Z,77.59
2022-10-21T07:17:06.623Z,77.44
2022-10-21T07:19:37.058Z,77.29
2022-10-21T07:22:06.309Z,77.05
2022-10-21T07:24:36.671Z,76.80
2022-10-21T07:27:07.981Z,76.64
2022-10-21T07:29:39.570Z,76.46
2022-10-21T07:32:09.660Z,76.22
2022-10-21T07:34:39.984Z,75.99
2022-10-21T07:37:10.463Z,75.89
2022-10-21T07:39:41.734Z,75.59
2022-10-21T07:42:12.782Z,75.13
2022-10-21T07:44:42.731Z,74.74
2022-10-21T07:47:12.490Z,74.50
2022-10-21T07:49:41.521Z,74.17
2022-10-21T07:52:11.827Z,73.85
2022-10-21T07:54:41.832Z,73.45
2022-10-21T07:57:12.652Z,72.90
2022-10-21T07:59:42.330Z,71.52
2022-10-21T08:02:14.577Z,70.72
2022-10-21T08:04:45.256Z,70.44
2022-10-21T08:07:15.316Z,70.18
2022-10-21T08:09:45.987Z,69.85
2022-10-21T08:12:16.492Z,69.46
2022-10-21T08:14:47.548Z,69.32
2022-10-21T08:17:17.405Z,69.02
2022-10-21T08:19:48.098Z,68.78
2022-10-21T08:22:17.671Z,68.62
2022-10-21T08:24:47.946Z,68.44
2022-10-21T08:27:17.535Z,67.99
2022-10-21T08:29:49.124Z,67.85
2022-10-21T08:32:18.641Z,67.56
2022-10-21T08:34:49.451Z,67.47
2022-10-21T08:37:23.465Z,67.06
2022-10-21T08:39:52.412Z,66.42
2022-10-21T08:42:23.543Z,66.03
2022-10-21T08:45:03.060Z,65.46
2022-10-21T08:47:45.035Z,65.50
2022-10-21T08:50:17.480Z,65.66
2022-10-21T08:53:01.720Z,65.57
2022-10-21T08:55:40.136Z,65.39
2022-10-21T08:58:19.149Z,65.20
2022-10-21T09:01:02.669Z,64.26
2022-10-21T09:04:19.772Z,64.43
2022-10-21T09:07:11.191Z,64.27
2022-10-21T09:09:55.571Z,64.19
2022-10-21T09:13:02.385Z,63.99
2022-10-21T09:16:01.901Z,63.82
2022-10-21T09:19:09.891Z,63.59
2022-10-21T09:22:33.234Z,63.30
2022-10-21T09:25:01.026Z,62.50
2022-10-21T09:27:32.390Z,62.47
2022-10-21T09:30:03.489Z,62.20
2022-10-21T09:32:36.486Z,62.46
2022-10-21T09:35:28.739Z,62.03
2022-10-21T09:38:21.033Z,62.37
2022-10-21T09:40:52.834Z,62.19
2022-10-21T09:43:25.513Z,61.94
2022-10-21T09:45:54.723Z,61.46
2022-10-21T09:51:31.634Z,61.52
2022-10-21T09:54:11.675Z,62.02
2022-10-21T09:56:58.978Z,61.81
2022-10-21T09:59:32.892Z,61.87
2022-10-21T10:02:06.701Z,61.79
2022-10-21T10:04:37.442Z,61.81
2022-10-21T10:07:34.282Z,61.68
2022-10-21T10:10:08.468Z,61.20
2022-10-21T10:12:37.416Z,61.37
2022-10-21T10:15:15.212Z,61.27
2022-10-21T10:17:46.324Z,60.84
2022-10-21T10:20:20.341Z,60.90
2022-10-21T10:23:05.441Z,60.61
2022-10-21T10:25:39.042Z,60.45
2022-10-21T10:28:15.255Z,60.50
2022-10-21T10:30:48.866Z,60.42
2022-10-21T10:33:24.120Z,60.25
2022-10-21T10:36:05.510Z,60.06
2022-10-21T10:38:48.526Z,60.05
2022-10-21T10:41:18.196Z,60.09
2022-10-21T10:43:53.540Z,59.37
2022-10-21T10:46:34.914Z,59.27
2022-10-21T10:49:23.831Z,59.37
2022-10-21T10:52:11.639Z,58.95
2022-10-21T10:54:43.165Z,59.00
2022-10-21T10:57:29.853Z,58.89
2022-10-21T11:00:10.103Z,58.85
2022-10-21T11:02:51.222Z,58.54
2022-10-21T11:05:46.390Z,58.23
2022-10-21T11:08:36.029Z,58.16
2022-10-21T11:11:16.852Z,58.14
2022-10-21T11:13:47.867Z,58.04
2022-10-21T11:16:50.498Z,57.66
2022-10-21T11:19:30.194Z,57.36
2022-10-21T11:22:17.763Z,57.68
2022-10-21T11:24:58.111Z,57.32
2022-10-21T11:28:09.973Z,56.99
2022-10-21T11:31:09.152Z,56.87
2022-10-21T11:33:57.659Z,56.71
2022-10-21T11:36:40.506Z,56.29
2022-10-21T11:39:36.141Z,56.62
2022-10-21T11:42:16.531Z,56.13
2022-10-21T11:45:20.788Z,56.60
2022-10-21T11:47:58.825Z,56.30
2022-10-21T11:51:00.311Z,56.23
2022-10-21T11:53:50.633Z,55.56
2022-10-21T11:56:47.267Z,55.29
2022-10-21T11:59:54.166Z,54.93
2022-10-21T12:02:44.632Z,54.43
2022-10-21T12:05:28.239Z,53.78
2022-10-21T12:08:18.533Z,54.20
2022-10-21T12:11:17.403Z,54.53
2022-10-21T12:13:55.537Z,54.35
2022-10-21T12:16:30.617Z,54.35
2022-10-21T12:19:05.619Z,54.70
2022-10-21T12:21:37.016Z,54.75
2022-10-21T12:24:33.807Z,54.57
2022-10-21T12:27:25.583Z,54.25
2022-10-21T12:30:09.037Z,54.43
2022-10-21T12:32:52.679Z,54.83
2022-10-21T12:35:45.559Z,54.51
2022-10-21T12:38:30.529Z,54.66
2022-10-21T12:41:34.352Z,54.51
2022-10-21T12:44:22.175Z,54.40
2022-10-21T12:47:03.102Z,53.73
2022-10-21T12:49:34.010Z,53.68
2022-10-21T12:52:10.909Z,53.89
2022-10-21T12:54:53.739Z,53.71
2022-10-21T12:57:38.512Z,54.18
2022-10-21T13:00:33.646Z,54.19
2022-10-21T13:03:10.601Z,53.84
2022-10-21T13:05:49.820Z,53.86
2022-10-21T13:08:28.931Z,53.83
2022-10-21T13:11:12.829Z,53.99
2022-10-21T13:13:47.474Z,53.81
2022-10-21T13:16:25.603Z,53.61
2022-10-21T13:19:00.050Z,53.53
2022-10-21T13:21:43.338Z,53.41
2022-10-21T13:24:23.721Z,53.56
2022-10-21T13:27:04.417Z,53.56
2022-10-21T13:29:41.908Z,53.77
2022-10-21T13:32:30.258Z,53.89
2022-10-21T13:35:20.439Z,53.95
2022-10-21T13:37:56.282Z,54.18
2022-10-21T13:40:30.794Z,53.93
2022-10-21T13:43:03.360Z,53.94
2022-10-21T13:45:37.914Z,54.21
2022-10-21T13:48:23.295Z,54.31
2022-10-21T13:50:53.311Z,54.40
2022-10-21T13:53:28.402Z,54.30
2022-10-21T13:56:01.421Z,54.36
2022-10-21T13:58:36.719Z,54.52
2022-10-21T14:01:12.134Z,54.31
2022-10-21T14:03:42.311Z,54.49
2022-10-21T14:06:29.310Z,54.52
2022-10-21T14:09:01.866Z,54.44
2022-10-21T14:11:36.492Z,54.31
2022-10-21T14:14:07.662Z,54.31
2022-10-21T14:16:41.831Z,54.37
2022-10-21T14:19:21.165Z,54.36
2022-10-21T14:21:56.636Z,54.58
2022-10-21T14:24:42.369Z,54.70
2022-10-21T14:27:15.733Z,54.80
2022-10-21T14:29:45.708Z,54.90
2022-10-21T14:32:16.870Z,54.91
2022-10-21T14:35:10.863Z,54.90
2022-10-21T14:37:47.474Z,55.10
2022-10-21T14:40:36.010Z,55.13
2022-10-21T14:43:09.793Z,55.40
2022-10-21T14:45:52.021Z,55.48
2022-10-21T14:48:41.718Z,55.75
2022-10-21T14:51:15.244Z,56.36
2022-10-21T14:53:57.009Z,56.40
2022-10-21T14:56:40.747Z,56.76
2022-10-21T14:59:22.914Z,57.31
2022-10-21T15:01:52.568Z,57.75
2022-10-21T15:04:56.892Z,58.40
2022-10-21T15:07:33.157Z,59.04
2022-10-21T15:10:10.026Z,59.94
2022-10-21T15:12:50.404Z,60.59
2022-10-21T15:15:52.485Z,61.12
2022-10-21T15:18:33.086Z,61.38
2022-10-21T15:21:10.252Z,61.54
2022-10-21T15:23:47.183Z,61.96
2022-10-21T15:26:29.326Z,62.49
2022-10-21T15:29:01.305Z,62.63
2022-10-21T15:31:32.158Z,62.98
2022-10-21T15:34:02.912Z,63.40
2022-10-21T15:36:32.515Z,63.64
2022-10-21T15:39:05.382Z,63.93
2022-10-21T15:41:36.572Z,64.26
2022-10-21T15:44:16.045Z,64.66
2022-10-21T15:46:50.139Z,64.94
2022-10-21T15:49:22.742Z,65.22
2022-10-21T15:51:52.539Z,65.36
2022-10-21T15:54:22.958Z,65.46
2022-10-21T15:56:54.321Z,65.77
2022-10-21T15:59:29.551Z,65.90
2022-10-21T16:01:59.616Z,66.05
2022-10-21T16:04:29.873Z,66.23
2022-10-21T16:06:59.502Z,66.44
2022-10-21T16:09:29.927Z,66.69
2022-10-21T16:12:01.567Z,67.00
2022-10-21T16:14:33.576Z,67.22
2022-10-21T16:17:04.416Z,67.41
2022-10-21T16:19:34.316Z,67.62
2022-10-21T16:22:13.455Z,67.85
2022-10-21T16:24:44.204Z,68.02
2022-10-21T16:27:13.977Z,68.10
2022-10-21T16:29:43.552Z,68.30
2022-10-21T16:32:15.998Z,68.52
2022-10-21T16:34:46.426Z,68.81
2022-10-21T16:37:27.294Z,69.04
2022-10-21T16:39:58.349Z,69.27
2022-10-21T16:42:29.647Z,69.42
2022-10-21T16:44:58.646Z,69.55
2022-10-21T16:47:28.742Z,69.76
2022-10-21T16:49:58.698Z,69.96
2022-10-21T16:52:28.762Z,70.16
2022-10-21T16:54:58.768Z,70.24
2022-10-21T16:57:29.358Z,70.29
2022-10-21T16:59:58.605Z,70.39
2022-10-21T17:02:27.684Z,70.50
2022-10-21T17:04:58.420Z,70.65
2022-10-21T17:07:27.523Z,70.72
2022-10-21T17:09:58.533Z,70.84
2022-10-21T17:12:31.944Z,71.09
2022-10-21T17:15:03.008Z,71.33
2022-10-21T17:17:34.130Z,71.54
2022-10-21T17:20:06.358Z,71.75
2022-10-21T17:22:36.115Z,71.80
2022-10-21T17:25:06.026Z,71.88
2022-10-21T17:27:36.168Z,72.01
2022-10-21T17:30:06.693Z,72.08
2022-10-21T17:32:37.043Z,72.25
2022-10-21T17:35:12.573Z,72.51
2022-10-21T17:37:43.554Z,72.59
2022-10-21T17:40:20.796Z,72.79
2022-10-21T17:42:50.707Z,72.96
2022-10-21T17:45:20.575Z,73.10
2022-10-21T17:47:50.707Z,73.16
2022-10-21T17:50:25.830Z,73.19
2022-10-21T17:53:00.121Z,73.29
2022-10-21T17:55:29.125Z,73.53
2022-10-21T17:57:59.982Z,73.66
2022-10-21T18:00:30.165Z,73.64
2022-10-21T18:03:05.507Z,73.61
2022-10-21T18:05:34.993Z,73.67
2022-10-21T18:08:05.593Z,73.81
2022-10-21T18:10:36.363Z,73.82
2022-10-21T18:13:06.547Z,73.85
2022-10-21T18:15:38.690Z,73.92
2022-10-21T18:18:09.181Z,74.05
2022-10-21T18:20:40.105Z,74.07
2022-10-21T18:23:09.440Z,74.04
2022-10-21T18:25:39.698Z,73.98
2022-10-21T18:28:09.633Z,74.01
2022-10-21T18:30:43.818Z,74.04
2022-10-21T18:33:14.685Z,74.10
2022-10-21T18:35:45.700Z,74.21
2022-10-21T18:38:16.189Z,74.20
2022-10-21T18:40:56.416Z,74.16
2022-10-21T18:43:18.933Z,74.25
2022-10-21T18:45:49.413Z,74.31
2022-10-21T18:48:19.024Z,74.44
2022-10-21T18:50:48.955Z,74.70
2022-10-21T18:53:19.437Z,74.81
2022-10-21T18:55:51.796Z,74.87
2022-10-21T18:58:22.972Z,74.78
2022-10-21T19:00:52.386Z,74.83
2022-10-21T19:03:21.240Z,74.80
2022-10-21T19:05:52.895Z,74.82
2022-10-21T19:08:22.691Z,74.94
2022-10-21T19:10:54.087Z,75.02
2022-10-21T19:13:24.532Z,75.10
2022-10-21T19:15:56.549Z,75.13
2022-10-21T19:18:27.593Z,75.18
2022-10-21T19:20:58.177Z,75.27
2022-10-21T19:23:30.172Z,75.36
2022-10-21T19:26:07.636Z,75.44
2022-10-21T19:28:37.302Z,75.55
2022-10-21T19:31:08.690Z,75.72
2022-10-21T19:33:40.396Z,75.81
2022-10-21T19:36:11.154Z,75.93
2022-10-21T19:38:44.479Z,76.11
2022-10-21T19:41:15.786Z,76.22
2022-10-21T19:43:45.629Z,76.33
2022-10-21T19:46:22.382Z,76.55
2022-10-21T19:48:53.698Z,76.70
2022-10-21T19:51:25.916Z,76.78
2022-10-21T19:53:56.796Z,76.94
2022-10-21T19:56:30.715Z,77.11
2022-10-21T19:58:59.964Z,77.35
2022-10-21T20:01:30.600Z,77.47
2022-10-21T20:04:01.458Z,77.56
2022-10-21T20:06:34.525Z,77.70
2022-10-21T20:09:10.988Z,77.77
2022-10-21T20:11:41.458Z,77.81
2022-10-21T20:14:15.841Z,77.89
2022-10-21T20:16:48.957Z,78.00
2022-10-21T20:19:19.474Z,78.17
2022-10-21T20:21:49.922Z,78.28
2022-10-21T20:24:20.246Z,78.44
2022-10-21T20:26:52.636Z,78.59
2022-10-21T20:29:22.198Z,78.72
2022-10-21T20:31:52.184Z,78.75
2022-10-21T20:34:22.460Z,78.80
2022-10-21T20:36:53.856Z,78.92
2022-10-21T20:39:24.882Z,79.05
2022-10-21T20:41:54.307Z,79.16
2022-10-21T20:44:25.206Z,79.33
2022-10-21T20:46:56.682Z,79.39
2022-10-21T20:49:26.988Z,79.48
2022-10-21T20:51:56.221Z,79.63
2022-10-21T20:54:28.483Z,79.78
2022-10-21T20:56:59.229Z,79.94
2022-10-21T20:59:29.344Z,80.00
2022-10-21T21:01:59.170Z,80.10
2022-10-21T21:04:28.989Z,80.21
2022-10-21T21:06:58.970Z,80.21
2022-10-21T21:09:44.012Z,80.27
2022-10-21T21:12:03.027Z,80.33
2022-10-21T21:14:33.132Z,80.36
2022-10-21T21:17:04.956Z,80.41
2022-10-21T21:19:35.201Z,80.60
2022-10-21T21:22:05.180Z,80.83
2022-10-21T21:24:34.642Z,80.97
2022-10-21T21:27:05.352Z,81.16
2022-10-21T21:29:35.816Z,81.21
2022-10-21T21:32:06.278Z,81.32
2022-10-21T21:34:35.684Z,81.42
2022-10-21T21:37:07.155Z,81.61
2022-10-21T21:39:36.708Z,81.78
2022-10-21T21:42:07.516Z,81.90
2022-10-21T21:44:38.846Z,81.98
2022-10-21T21:47:07.988Z,81.95
2022-10-21T21:49:38.065Z,81.86
2022-10-21T21:52:09.066Z,81.82
2022-10-21T21:54:38.921Z,81.83
2022-10-21T21:57:27.619Z,81.84
2022-10-21T21:59:41.543Z,81.85
2022-10-21T22:02:11.890Z,81.94
2022-10-21T22:04:42.633Z,82.09
2022-10-21T22:07:12.247Z,82.18
2022-10-21T22:09:42.914Z,82.20
2022-10-21T22:12:16.352Z,82.21
2022-10-21T22:14:49.690Z,82.09
2022-10-21T22:17:20.643Z,82.10
2022-10-21T22:19:53.712Z,82.19
2022-10-21T22:22:23.229Z,82.26
2022-10-21T22:24:53.793Z,82.25
2022-10-21T22:27:24.478Z,82.23
2022-10-21T22:29:54.742Z,82.16
2022-10-21T22:32:24.009Z,82.05
2022-10-21T22:34:54.143Z,81.96
2022-10-21T22:37:23.961Z,81.80
2022-10-21T22:39:54.192Z,81.71
2022-10-21T22:42:25.381Z,81.72
2022-10-21T22:44:57.816Z,81.71
2022-10-21T22:47:30.039Z,81.65
2022-10-21T22:50:02.811Z,81.66
2022-10-21T22:52:33.752Z,81.66
2022-10-21T22:55:07.109Z,81.65
2022-10-21T22:57:39.194Z,81.64
2022-10-21T23:00:12.214Z,81.57
2022-10-21T23:02:47.426Z,81.48
2022-10-21T23:05:18.603Z,81.37
2022-10-21T23:07:49.524Z,81.27
2022-10-21T23:10:23.162Z,81.11
2022-10-21T23:12:56.566Z,80.91
2022-10-21T23:15:27.347Z,80.80
2022-10-21T23:17:58.841Z,80.84
2022-10-21T23:20:28.373Z,80.82
2022-10-21T23:22:58.245Z,80.81
2022-10-21T23:25:28.472Z,80.82
2022-10-21T23:27:57.232Z,80.82
2022-10-21T23:30:26.861Z,80.70
2022-10-21T23:32:56.036Z,80.70
2022-10-21T23:35:30.989Z,80.67
2022-10-21T23:38:00.672Z,80.64
2022-10-21T23:40:31.165Z,80.62
2022-10-21T23:43:00.411Z,80.56
2022-10-21T23:45:29.535Z,80.40
2022-10-21T23:47:59.802Z,80.38
2022-10-21T23:50:28.794Z,80.41
2022-10-21T23:52:58.335Z,80.38
2022-10-21T23:57:57.976Z,80.08
